createdAt,value
2023-02-25T00:00:46.120Z,48887.09
2023-02-25T00:03:12.675Z,48883.16
2023-02-25T00:05:42.896Z,48908.63
2023-02-25T00:08:09.498Z,48908.63
2023-02-25T00:10:35.919Z,48877.28
2023-02-25T00:13:17.345Z,48922.34
2023-02-25T00:15:44.661Z,48891.00
2023-02-25T00:18:11.022Z,48896.88
2023-02-25T00:20:40.955Z,48894.91
2023-02-25T00:23:08.137Z,48898.84
2023-02-25T00:25:34.524Z,48914.50
2023-02-25T00:28:00.929Z,48896.88
2023-02-25T00:30:27.356Z,48896.88
2023-02-25T00:32:53.788Z,48906.69
2023-02-25T00:35:20.304Z,48949.78
2023-02-25T00:37:46.744Z,48916.47
2023-02-25T00:40:16.426Z,48920.38
2023-02-25T00:42:42.896Z,48918.44
2023-02-25T00:45:11.247Z,48906.69
2023-02-25T00:47:38.337Z,48934.09
2023-02-25T00:50:09.309Z,48906.69
2023-02-25T00:52:37.600Z,48926.25
2023-02-25T00:55:06.073Z,48894.91
2023-02-25T00:57:32.945Z,48879.25
2023-02-25T00:59:59.352Z,48908.63
2023-02-25T01:02:25.805Z,48926.25
2023-02-25T01:04:52.229Z,48918.44
2023-02-25T01:07:20.876Z,48891.00
2023-02-25T01:09:47.259Z,48926.25
2023-02-25T01:12:14.132Z,48910.59
2023-02-25T01:14:40.502Z,48910.59
2023-02-25T01:17:10.058Z,48904.72
2023-02-25T01:19:36.456Z,48926.25
2023-02-25T01:22:02.892Z,48918.44
2023-02-25T01:24:31.949Z,48914.50
2023-02-25T01:27:00.641Z,48906.69
2023-02-25T01:29:30.729Z,48906.69
2023-02-25T01:32:00.760Z,48902.75
2023-02-25T01:34:28.871Z,48908.63
2023-02-25T01:36:56.241Z,48914.50
2023-02-25T01:39:26.188Z,48926.25
2023-02-25T01:41:54.148Z,48887.09
2023-02-25T01:44:31.797Z,48930.19
2023-02-25T01:46:58.834Z,48920.38
2023-02-25T01:49:46.527Z,48926.25
2023-02-25T01:52:21.072Z,48938.03
2023-02-25T01:54:51.695Z,48926.25
2023-02-25T01:57:19.531Z,48906.69
2023-02-25T01:59:48.274Z,48930.19
2023-02-25T02:02:19.810Z,48934.09
2023-02-25T02:04:50.194Z,48961.53
2023-02-25T02:07:17.775Z,48941.94
2023-02-25T02:09:56.871Z,48961.53
2023-02-25T02:12:31.426Z,48938.03
2023-02-25T02:15:00.207Z,48906.69
2023-02-25T02:17:32.956Z,48910.59
2023-02-25T02:20:13.139Z,48930.19
2023-02-25T02:23:03.772Z,48941.94
2023-02-25T02:25:45.315Z,48914.50
2023-02-25T02:28:26.946Z,48916.47
2023-02-25T02:31:18.047Z,48918.44
2023-02-25T02:33:51.721Z,48941.94
2023-02-25T02:36:35.221Z,48912.56
2023-02-25T02:39:19.034Z,48914.50
2023-02-25T02:41:55.135Z,48906.69
2023-02-25T02:45:01.101Z,48908.63
2023-02-25T02:47:50.215Z,48891.00
2023-02-25T02:50:20.854Z,48914.50
2023-02-25T02:52:53.213Z,48953.69
2023-02-25T02:55:23.847Z,48959.56
2023-02-25T02:57:54.629Z,48922.34
2023-02-25T03:00:26.065Z,48902.75
2023-02-25T03:02:59.254Z,48906.69
2023-02-25T03:05:30.799Z,48883.16
2023-02-25T03:08:18.720Z,48920.38
2023-02-25T03:10:45.126Z,48902.75
2023-02-25T03:13:12.182Z,48908.63
2023-02-25T03:15:40.739Z,48894.91
2023-02-25T03:18:18.378Z,48877.28
2023-02-25T03:20:49.404Z,48865.53
2023-02-25T03:23:31.425Z,48871.41
2023-02-25T03:26:22.912Z,48871.41
2023-02-25T03:28:50.286Z,48879.25
2023-02-25T03:31:24.485Z,48859.66
2023-02-25T03:34:03.262Z,48863.56
2023-02-25T03:36:53.421Z,48877.28
2023-02-25T03:39:27.186Z,48912.56
2023-02-25T03:41:57.699Z,48885.13
2023-02-25T03:44:30.297Z,48871.41
2023-02-25T03:46:58.311Z,48851.81
2023-02-25T03:49:33.161Z,48885.13
2023-02-25T03:52:04.626Z,48853.78
2023-02-25T03:54:31.028Z,48855.75
2023-02-25T03:56:57.439Z,48851.81
2023-02-25T03:59:26.600Z,48851.81
2023-02-25T04:01:55.461Z,48842.03
2023-02-25T04:04:21.935Z,48836.16
2023-02-25T04:06:48.435Z,48844.00
2023-02-25T04:09:14.879Z,48871.41
2023-02-25T04:11:41.370Z,48840.06
2023-02-25T04:14:07.849Z,48851.81
2023-02-25T04:16:34.512Z,48828.31
2023-02-25T04:19:01.460Z,48838.09
2023-02-25T04:21:37.299Z,48847.91
2023-02-25T04:24:05.596Z,48855.75
2023-02-25T04:26:33.097Z,48840.06
2023-02-25T04:28:59.841Z,48836.16
2023-02-25T04:31:26.522Z,48814.59
2023-02-25T04:33:53.240Z,48845.94
2023-02-25T04:36:31.750Z,48838.09
2023-02-25T04:39:01.461Z,48836.16
2023-02-25T04:41:33.014Z,48859.66
2023-02-25T04:44:00.229Z,48832.22
2023-02-25T04:46:26.864Z,48879.25
2023-02-25T04:48:53.400Z,48812.63
2023-02-25T04:51:21.083Z,48883.16
2023-02-25T04:53:48.031Z,48832.22
2023-02-25T04:56:14.855Z,48871.41
2023-02-25T04:58:41.450Z,48861.63
2023-02-25T05:01:10.551Z,48851.81
2023-02-25T05:03:37.809Z,48859.66
2023-02-25T05:06:05.370Z,48840.06
2023-02-25T05:08:32.389Z,48820.47
2023-02-25T05:10:59.437Z,48832.22
2023-02-25T05:13:26.910Z,48855.75
2023-02-25T05:15:53.501Z,48828.31
2023-02-25T05:18:19.964Z,48844.00
2023-02-25T05:20:47.485Z,48812.63
2023-02-25T05:23:14.684Z,48863.56
2023-02-25T05:25:41.268Z,48844.00
2023-02-25T05:28:11.904Z,48810.69
2023-02-25T05:30:39.951Z,48824.41
2023-02-25T05:33:06.957Z,48830.28
2023-02-25T05:35:34.422Z,48808.72
2023-02-25T05:38:00.955Z,48828.31
2023-02-25T05:40:28.019Z,48800.88
2023-02-25T05:42:54.405Z,48796.97
2023-02-25T05:45:21.288Z,48818.53
2023-02-25T05:47:47.905Z,48783.25
2023-02-25T05:50:14.675Z,48824.41
2023-02-25T05:52:41.131Z,48808.72
2023-02-25T05:55:09.730Z,48771.50
2023-02-25T05:57:36.755Z,48800.88
2023-02-25T06:00:09.584Z,48820.47
2023-02-25T06:02:36.949Z,48808.72
2023-02-25T06:05:03.741Z,48793.06
2023-02-25T06:07:31.788Z,48795.00
2023-02-25T06:10:00.764Z,48798.94
2023-02-25T06:12:32.270Z,48779.34
2023-02-25T06:14:59.559Z,48804.81
2023-02-25T06:17:26.137Z,48793.06
2023-02-25T06:19:53.488Z,48810.69
2023-02-25T06:22:21.245Z,48804.81
2023-02-25T06:24:47.840Z,48808.72
2023-02-25T06:27:15.180Z,48810.69
2023-02-25T06:29:42.085Z,48800.88
2023-02-25T06:32:10.559Z,48796.97
2023-02-25T06:34:38.572Z,48785.22
2023-02-25T06:37:05.732Z,48769.53
2023-02-25T06:39:32.698Z,48796.97
2023-02-25T06:41:59.355Z,48785.22
2023-02-25T06:44:27.143Z,48796.97
2023-02-25T06:46:56.351Z,48791.09
2023-02-25T06:49:24.208Z,48785.22
2023-02-25T06:51:50.825Z,48812.63
2023-02-25T06:54:17.953Z,48769.53
2023-02-25T06:56:45.367Z,48781.31
2023-02-25T06:59:11.782Z,48804.81
2023-02-25T07:01:38.442Z,48793.06
2023-02-25T07:04:05.103Z,48785.22
2023-02-25T07:06:31.787Z,48796.97
2023-02-25T07:08:58.274Z,48804.81
2023-02-25T07:11:24.901Z,48777.38
2023-02-25T07:13:51.805Z,48769.53
2023-02-25T07:16:18.789Z,48796.97
2023-02-25T07:18:45.580Z,48765.63
2023-02-25T07:21:13.599Z,48804.81
2023-02-25T07:23:41.058Z,48812.63
2023-02-25T07:26:09.981Z,48769.53
2023-02-25T07:28:36.796Z,48781.31
2023-02-25T07:31:10.070Z,48798.94
2023-02-25T07:33:36.553Z,48804.81
2023-02-25T07:36:03.134Z,48773.47
2023-02-25T07:38:29.521Z,48781.31
2023-02-25T07:40:56.545Z,48761.72
2023-02-25T07:43:22.984Z,48804.81
2023-02-25T07:45:50.015Z,48769.53
2023-02-25T07:48:16.499Z,48793.06
2023-02-25T07:50:44.691Z,48816.56
2023-02-25T07:53:11.197Z,48777.38
2023-02-25T07:55:37.917Z,48785.22
2023-02-25T07:58:06.898Z,48804.81
2023-02-25T08:00:34.134Z,48763.66
2023-02-25T08:03:00.735Z,48775.41
2023-02-25T08:05:27.381Z,48761.72
2023-02-25T08:07:53.744Z,48777.38
2023-02-25T08:10:21.074Z,48775.41
2023-02-25T08:12:47.459Z,48793.06
2023-02-25T08:15:13.877Z,48746.03
2023-02-25T08:17:40.271Z,48769.53
2023-02-25T08:20:08.133Z,48769.53
2023-02-25T08:22:34.639Z,48765.63
2023-02-25T08:25:01.054Z,48773.47
2023-02-25T08:27:27.556Z,48769.53
2023-02-25T08:29:53.950Z,48761.72
2023-02-25T08:32:20.515Z,48761.72
2023-02-25T08:34:48.807Z,48746.03
2023-02-25T08:37:15.377Z,48804.81
2023-02-25T08:39:41.757Z,48793.06
2023-02-25T08:42:08.175Z,48777.38
2023-02-25T08:44:34.752Z,48746.03
2023-02-25T08:47:01.222Z,48769.53
2023-02-25T08:49:27.622Z,48734.28
2023-02-25T08:51:54.023Z,48763.66
2023-02-25T08:54:20.479Z,48753.88
2023-02-25T08:56:51.331Z,48746.03
2023-02-25T08:59:17.781Z,48757.78
2023-02-25T09:01:44.685Z,48777.38
2023-02-25T09:04:25.465Z,48783.25
2023-02-25T09:06:54.045Z,48765.63
2023-02-25T09:09:21.619Z,48757.78
2023-02-25T09:11:49.198Z,48773.47
2023-02-25T09:14:16.130Z,48761.72
2023-02-25T09:16:42.672Z,48789.13
2023-02-25T09:19:10.705Z,48773.47
2023-02-25T09:21:37.197Z,48777.38
2023-02-25T09:24:03.777Z,48775.41
2023-02-25T09:26:30.196Z,48761.72
2023-02-25T09:29:00.292Z,48746.03
2023-02-25T09:31:27.151Z,48777.38
2023-02-25T09:33:53.928Z,48746.03
2023-02-25T09:36:21.622Z,48781.31
2023-02-25T09:38:49.914Z,48787.19
2023-02-25T09:41:37.618Z,48761.72
2023-02-25T09:44:32.396Z,48777.38
2023-02-25T09:47:14.301Z,48761.72
2023-02-25T09:49:48.104Z,48765.63
2023-02-25T09:52:35.423Z,48791.09
2023-02-25T09:55:11.096Z,48800.88
2023-02-25T09:57:41.690Z,48773.47
2023-02-25T10:00:20.504Z,48761.72
2023-02-25T10:02:50.229Z,48769.53
2023-02-25T10:05:27.825Z,48757.78
2023-02-25T10:08:19.041Z,48781.31
2023-02-25T10:11:01.746Z,48777.38
2023-02-25T10:13:54.592Z,48785.22
2023-02-25T10:16:31.057Z,48781.31
2023-02-25T10:19:08.172Z,48738.19
2023-02-25T10:21:49.773Z,48730.38
2023-02-25T10:24:25.060Z,48793.06
2023-02-25T10:26:56.545Z,48744.06
2023-02-25T10:29:36.821Z,48765.63
2023-02-25T10:32:17.237Z,48779.34
2023-02-25T10:34:44.148Z,48746.03
2023-02-25T10:37:27.110Z,48757.78
2023-02-25T10:39:58.652Z,48732.31
2023-02-25T10:42:26.912Z,48753.88
2023-02-25T10:44:55.601Z,48761.72
2023-02-25T10:47:31.618Z,48730.38
2023-02-25T10:50:32.522Z,48730.38
2023-02-25T10:53:14.666Z,48769.53
2023-02-25T10:55:44.160Z,48742.13
2023-02-25T10:58:44.309Z,48771.50
2023-02-25T11:01:15.223Z,48759.75
2023-02-25T11:03:48.229Z,48785.22
2023-02-25T11:06:26.081Z,48740.16
2023-02-25T11:08:54.801Z,48746.03
2023-02-25T11:11:24.479Z,48763.66
2023-02-25T11:14:05.312Z,48777.38
2023-02-25T11:16:36.216Z,48765.63
2023-02-25T11:19:13.558Z,48777.38
2023-02-25T11:21:40.456Z,48734.28
2023-02-25T11:24:17.239Z,48751.91
2023-02-25T11:26:47.011Z,48763.66
2023-02-25T11:29:22.064Z,48730.38
2023-02-25T11:31:55.831Z,48765.63
2023-02-25T11:34:30.737Z,48726.44
2023-02-25T11:37:18.957Z,48746.03
2023-02-25T11:39:54.826Z,48744.06
2023-02-25T11:42:26.341Z,48761.72
2023-02-25T11:45:04.328Z,48753.88
2023-02-25T11:47:38.292Z,48751.91
2023-02-25T11:50:08.196Z,48742.13
2023-02-25T11:52:43.407Z,48746.03
2023-02-25T11:55:26.049Z,48753.88
2023-02-25T11:58:14.744Z,48746.03
2023-02-25T12:00:56.970Z,48757.78
2023-02-25T12:03:54.739Z,48757.78
2023-02-25T12:06:47.129Z,48773.47
2023-02-25T12:09:25.460Z,48785.22
2023-02-25T12:12:01.328Z,48761.72
2023-02-25T12:14:46.019Z,48753.88
2023-02-25T12:17:43.117Z,48742.13
2023-02-25T12:20:51.057Z,48765.63
2023-02-25T12:23:33.450Z,48740.16
2023-02-25T12:26:12.435Z,48757.78
2023-02-25T12:29:17.871Z,48751.91
2023-02-25T12:32:06.115Z,48761.72
2023-02-25T12:34:35.561Z,48769.53
2023-02-25T12:37:23.253Z,48769.53
2023-02-25T12:39:50.595Z,48781.31
2023-02-25T12:42:25.882Z,48765.63
2023-02-25T12:45:33.914Z,48732.31
2023-02-25T12:48:22.137Z,48765.63
2023-02-25T12:51:00.528Z,48740.16
2023-02-25T12:53:41.570Z,48736.25
2023-02-25T12:56:22.510Z,48771.50
2023-02-25T12:58:58.080Z,48763.66
2023-02-25T13:01:24.875Z,48757.78
2023-02-25T13:04:07.306Z,48781.31
2023-02-25T13:06:59.025Z,48742.13
2023-02-25T13:09:43.071Z,48765.63
2023-02-25T13:12:33.566Z,48757.78
2023-02-25T13:15:12.106Z,48793.06
2023-02-25T13:18:08.974Z,48773.47
2023-02-25T13:21:15.120Z,48816.56
2023-02-25T13:24:05.845Z,48808.72
2023-02-25T13:26:57.236Z,48812.63
2023-02-25T13:29:48.561Z,48814.59
2023-02-25T13:32:37.635Z,48816.56
2023-02-25T13:35:18.528Z,48844.00
2023-02-25T13:38:33.081Z,48847.91
2023-02-25T13:41:05.306Z,48922.34
2023-02-25T13:43:51.726Z,48953.69
2023-02-25T13:46:37.684Z,48926.25
2023-02-25T13:49:25.071Z,48900.78
2023-02-25T13:51:57.427Z,48891.00
2023-02-25T13:54:48.630Z,48949.78
2023-02-25T13:57:18.027Z,49028.13
2023-02-25T14:00:16.370Z,48977.19
2023-02-25T14:02:54.953Z,48992.88
2023-02-25T14:05:58.696Z,49030.09
2023-02-25T14:08:47.012Z,49057.53
2023-02-25T14:11:28.736Z,49043.81
2023-02-25T14:14:42.483Z,49012.47
2023-02-25T14:17:27.355Z,49051.66
2023-02-25T14:20:02.854Z,49063.41
2023-02-25T14:22:36.786Z,49032.06
2023-02-25T14:25:20.393Z,49051.66
2023-02-25T14:28:15.221Z,49032.06
2023-02-25T14:30:50.934Z,49039.88
2023-02-25T14:33:29.434Z,49035.97
2023-02-25T14:36:10.011Z,49035.97
2023-02-25T14:39:13.867Z,49004.63
2023-02-25T14:42:15.413Z,49043.81
2023-02-25T14:44:41.729Z,49059.47
2023-02-25T14:47:28.305Z,49081.03
2023-02-25T14:49:59.204Z,49063.41
2023-02-25T14:52:28.665Z,49043.81
2023-02-25T14:55:07.075Z,49051.66
2023-02-25T14:58:12.672Z,49047.72
2023-02-25T15:00:52.921Z,49055.56
2023-02-25T15:03:43.451Z,49020.31
2023-02-25T15:06:23.062Z,49047.72
2023-02-25T15:08:55.768Z,49016.38
2023-02-25T15:11:41.472Z,49032.06
2023-02-25T15:14:29.293Z,49020.31
2023-02-25T15:17:33.417Z,49024.22
2023-02-25T15:20:27.210Z,49006.59
2023-02-25T15:23:12.578Z,48998.75
2023-02-25T15:25:45.203Z,48973.28
2023-02-25T15:28:29.880Z,48977.19
2023-02-25T15:30:59.450Z,48981.13
2023-02-25T15:33:44.238Z,48988.94
2023-02-25T15:36:14.376Z,49008.53
2023-02-25T15:38:48.121Z,49018.34
2023-02-25T15:41:26.488Z,49016.38
2023-02-25T15:44:03.016Z,49020.31
2023-02-25T15:46:35.638Z,49035.97
2023-02-25T15:49:07.824Z,49032.06
2023-02-25T15:51:43.887Z,49035.97
2023-02-25T15:54:12.173Z,49032.06
2023-02-25T15:56:50.529Z,49030.09
2023-02-25T15:59:57.483Z,49020.31
2023-02-25T16:02:27.174Z,49032.06
2023-02-25T16:05:14.709Z,49039.88
2023-02-25T16:07:46.800Z,49024.22
2023-02-25T16:10:19.057Z,49039.88
2023-02-25T16:12:52.094Z,49026.19
2023-02-25T16:15:32.943Z,49024.22
2023-02-25T16:18:16.582Z,49035.97
2023-02-25T16:20:47.327Z,49034.00
2023-02-25T16:23:15.243Z,49034.00
2023-02-25T16:26:08.022Z,49026.19
2023-02-25T16:29:04.316Z,49049.69
2023-02-25T16:31:39.438Z,49041.84
2023-02-25T16:34:13.122Z,49049.69
2023-02-25T16:36:42.603Z,49079.06
2023-02-25T16:39:21.551Z,49094.75
2023-02-25T16:41:48.310Z,49047.72
2023-02-25T16:44:38.913Z,49016.38
2023-02-25T16:47:28.624Z,49051.66
2023-02-25T16:49:57.629Z,49053.59
2023-02-25T16:52:30.394Z,49061.44
2023-02-25T16:55:00.565Z,49043.81
2023-02-25T16:57:27.476Z,49051.66
2023-02-25T17:00:20.140Z,49069.28
2023-02-25T17:02:52.561Z,49020.31
2023-02-25T17:05:37.958Z,49022.25
2023-02-25T17:08:14.382Z,49055.56
2023-02-25T17:10:48.157Z,49045.78
2023-02-25T17:13:23.526Z,48996.78
2023-02-25T17:15:51.408Z,49051.66
2023-02-25T17:18:27.135Z,49020.31
2023-02-25T17:21:16.756Z,49039.88
2023-02-25T17:23:44.634Z,49028.13
2023-02-25T17:26:15.782Z,49049.69
2023-02-25T17:28:45.951Z,49037.94
2023-02-25T17:31:18.551Z,49032.06
2023-02-25T17:33:50.988Z,49067.31
2023-02-25T17:36:24.455Z,49026.19
2023-02-25T17:38:56.253Z,49047.72
2023-02-25T17:41:24.126Z,49030.09
2023-02-25T17:43:51.877Z,49049.69
2023-02-25T17:46:42.200Z,49075.16
2023-02-25T17:49:21.900Z,49028.13
2023-02-25T17:51:54.119Z,49034.00
2023-02-25T17:54:24.249Z,49063.41
2023-02-25T17:56:59.152Z,49024.22
2023-02-25T17:59:35.740Z,49051.66
2023-02-25T18:02:04.363Z,49059.47
2023-02-25T18:04:41.512Z,49030.09
2023-02-25T18:07:29.719Z,49039.88
2023-02-25T18:09:57.281Z,49096.72
2023-02-25T18:12:29.985Z,49047.72
2023-02-25T18:15:24.139Z,49047.72
2023-02-25T18:17:54.340Z,49047.72
2023-02-25T18:20:31.381Z,49083.00
2023-02-25T18:23:02.797Z,49041.84
2023-02-25T18:25:38.432Z,49069.28
2023-02-25T18:28:12.261Z,49061.44
2023-02-25T18:30:38.783Z,49061.44
2023-02-25T18:33:05.292Z,49088.88
2023-02-25T18:35:32.890Z,49067.31
2023-02-25T18:38:00.782Z,49063.41
2023-02-25T18:40:32.797Z,49051.66
2023-02-25T18:42:59.905Z,49059.47
2023-02-25T18:45:28.677Z,49034.00
2023-02-25T18:48:00.402Z,49059.47
2023-02-25T18:50:30.433Z,49073.19
2023-02-25T18:52:57.238Z,48971.31
2023-02-25T18:55:30.233Z,49024.22
2023-02-25T18:57:57.528Z,49010.50
2023-02-25T19:00:27.359Z,48981.13
2023-02-25T19:02:56.817Z,48988.94
2023-02-25T19:05:25.151Z,49012.47
2023-02-25T19:07:51.896Z,49035.97
2023-02-25T19:10:21.564Z,49020.31
2023-02-25T19:12:49.596Z,49008.53
2023-02-25T19:15:18.779Z,49071.25
2023-02-25T19:17:46.196Z,49071.25
2023-02-25T19:20:17.699Z,49016.38
2023-02-25T19:22:46.621Z,49032.06
2023-02-25T19:25:28.412Z,48985.03
2023-02-25T19:27:56.699Z,48902.75
2023-02-25T19:30:30.799Z,48957.59
2023-02-25T19:33:02.893Z,48941.94
2023-02-25T19:35:33.483Z,48977.19
2023-02-25T19:38:00.251Z,48969.38
2023-02-25T19:40:27.836Z,48973.28
2023-02-25T19:42:54.278Z,48977.19
2023-02-25T19:45:22.325Z,49012.47
2023-02-25T19:47:49.904Z,49012.47
2023-02-25T19:50:19.173Z,48987.00
2023-02-25T19:52:45.782Z,48988.94
2023-02-25T19:55:13.446Z,49028.13
2023-02-25T19:57:41.042Z,48987.00
2023-02-25T20:00:13.952Z,49000.72
2023-02-25T20:02:40.872Z,49012.47
2023-02-25T20:05:08.664Z,49004.63
2023-02-25T20:07:35.630Z,49012.47
2023-02-25T20:10:02.290Z,49010.50
2023-02-25T20:12:28.666Z,49053.59
2023-02-25T20:14:55.077Z,49032.06
2023-02-25T20:17:21.477Z,49043.81
2023-02-25T20:19:48.117Z,49032.06
2023-02-25T20:22:14.641Z,49004.63
2023-02-25T20:24:41.501Z,49020.31
2023-02-25T20:27:07.915Z,49024.22
2023-02-25T20:29:34.376Z,49028.13
2023-02-25T20:32:00.899Z,48987.00
2023-02-25T20:34:28.074Z,48992.88
2023-02-25T20:37:22.081Z,48969.38
2023-02-25T20:39:53.918Z,49012.47
2023-02-25T20:42:30.463Z,49018.34
2023-02-25T20:44:58.521Z,48985.03
2023-02-25T20:47:30.360Z,48994.84
2023-02-25T20:49:58.485Z,48977.19
2023-02-25T20:52:28.787Z,48969.38
2023-02-25T20:54:55.342Z,48955.66
2023-02-25T20:57:23.951Z,49006.59
2023-02-25T20:59:50.928Z,49014.41
2023-02-25T21:02:18.198Z,49026.19
2023-02-25T21:04:45.336Z,49035.97
2023-02-25T21:07:11.868Z,48988.94
2023-02-25T21:09:38.546Z,48988.94
2023-02-25T21:12:06.077Z,48987.00
2023-02-25T21:14:32.617Z,49024.22
2023-02-25T21:16:59.061Z,49018.34
2023-02-25T21:19:28.093Z,49010.50
2023-02-25T21:21:55.467Z,48996.78
2023-02-25T21:24:22.621Z,49004.63
2023-02-25T21:26:49.376Z,48985.03
2023-02-25T21:29:15.961Z,48996.78
2023-02-25T21:31:43.377Z,48981.13
2023-02-25T21:34:12.965Z,49020.31
2023-02-25T21:36:40.491Z,48996.78
2023-02-25T21:39:09.163Z,49028.13
2023-02-25T21:41:38.381Z,48969.38
2023-02-25T21:44:05.160Z,48996.78
2023-02-25T21:46:31.660Z,48992.88
2023-02-25T21:48:58.161Z,48961.53
2023-02-25T21:51:26.249Z,48938.03
2023-02-25T21:53:57.021Z,48965.44
2023-02-25T21:56:24.559Z,48961.53
2023-02-25T21:58:56.175Z,48969.38
2023-02-25T22:01:28.557Z,48967.41
2023-02-25T22:03:55.337Z,48977.19
2023-02-25T22:06:25.901Z,48955.66
2023-02-25T22:08:54.194Z,48941.94
2023-02-25T22:11:26.933Z,48953.69
2023-02-25T22:13:53.886Z,48914.50
2023-02-25T22:16:21.325Z,48973.28
2023-02-25T22:18:47.799Z,48947.81
2023-02-25T22:21:17.178Z,48938.03
2023-02-25T22:23:44.077Z,48939.97
2023-02-25T22:26:13.624Z,48916.47
2023-02-25T22:28:41.570Z,48918.44
2023-02-25T22:31:13.603Z,48894.91
2023-02-25T22:33:40.622Z,48918.44
2023-02-25T22:36:07.797Z,48961.53
2023-02-25T22:38:40.395Z,48957.59
2023-02-25T22:41:12.565Z,48918.44
2023-02-25T22:43:38.984Z,48914.50
2023-02-25T22:46:11.956Z,48914.50
2023-02-25T22:48:40.988Z,48898.84
2023-02-25T22:51:11.300Z,48936.06
2023-02-25T22:53:39.873Z,48947.81
2023-02-25T22:56:09.230Z,48973.28
2023-02-25T22:58:39.035Z,48906.69
2023-02-25T23:01:06.098Z,48934.09
2023-02-25T23:03:32.550Z,48894.91
2023-02-25T23:05:58.961Z,48867.50
2023-02-25T23:08:25.784Z,48808.72
2023-02-25T23:10:52.961Z,48826.34
2023-02-25T23:13:19.897Z,48800.88
2023-02-25T23:15:47.726Z,48798.94
2023-02-25T23:18:16.050Z,48771.50
2023-02-25T23:20:43.045Z,48769.53
2023-02-25T23:23:09.612Z,48730.38
2023-02-25T23:25:39.981Z,48755.84
2023-02-25T23:28:08.204Z,48742.13
2023-02-25T23:30:37.561Z,48722.53
2023-02-25T23:33:04.127Z,48753.88
2023-02-25T23:35:30.774Z,48718.59
2023-02-25T23:37:57.158Z,48730.38
2023-02-25T23:40:23.717Z,48738.19
2023-02-25T23:42:50.167Z,48738.19
2023-02-25T23:45:17.115Z,48744.06
2023-02-25T23:47:43.718Z,48738.19
2023-02-25T23:50:13.098Z,48718.59
2023-02-25T23:52:39.853Z,48706.84
2023-02-25T23:55:06.583Z,48742.13
2023-02-25T23:57:33.698Z,48718.59
